createdAt,value
2023-03-23T00:00:02.309Z,43.67
2023-03-23T00:01:02.211Z,43.83
2023-03-23T00:01:29.740Z,44.15
2023-03-23T00:03:01.670Z,43.51
2023-03-23T00:04:02.350Z,43.99
2023-03-23T00:04:29.673Z,43.67
2023-03-23T00:05:29.780Z,43.51
2023-03-23T00:06:29.758Z,43.99
2023-03-23T00:07:29.628Z,43.83
2023-03-23T00:08:29.624Z,44.15
2023-03-23T00:09:29.610Z,44.15
2023-03-23T00:10:29.616Z,44.31
2023-03-23T00:11:29.598Z,44.15
2023-03-23T00:12:30.914Z,43.83
2023-03-23T00:13:29.620Z,43.83
2023-03-23T00:14:29.627Z,44.31
2023-03-23T00:15:29.547Z,43.67
2023-03-23T00:16:29.628Z,44.15
2023-03-23T00:17:29.572Z,43.83
2023-03-23T00:18:29.572Z,44.31
2023-03-23T00:19:29.571Z,44.47
2023-03-23T00:20:29.559Z,43.83
2023-03-23T00:21:29.560Z,43.83
2023-03-23T00:22:29.546Z,43.83
2023-03-23T00:23:29.528Z,43.34
2023-03-23T00:24:29.498Z,43.51
2023-03-23T00:25:29.530Z,44.15
2023-03-23T00:26:29.507Z,43.83
2023-03-23T00:27:30.514Z,43.83
2023-03-23T00:28:29.539Z,43.51
2023-03-23T00:29:29.487Z,43.83
2023-03-23T00:30:29.458Z,43.67
2023-03-23T00:31:29.450Z,43.67
2023-03-23T00:32:29.491Z,44.31
2023-03-23T00:33:29.515Z,43.99
2023-03-23T00:34:29.437Z,43.67
2023-03-23T00:35:29.464Z,43.51
2023-03-23T00:36:29.419Z,43.51
2023-03-23T00:37:29.439Z,43.83
2023-03-23T00:38:29.407Z,43.51
2023-03-23T00:39:29.376Z,43.83
2023-03-23T00:40:29.420Z,43.99
2023-03-23T00:41:29.375Z,43.83
2023-03-23T00:42:29.368Z,43.83
2023-03-23T00:43:29.377Z,43.99
2023-03-23T00:44:29.420Z,43.67
2023-03-23T00:45:29.350Z,43.83
2023-03-23T00:46:29.368Z,44.15
2023-03-23T00:47:29.342Z,44.15
2023-03-23T00:48:29.342Z,43.67
2023-03-23T00:49:29.378Z,43.99
2023-03-23T00:50:33.831Z,44.15
2023-03-23T00:51:31.313Z,43.99
2023-03-23T00:52:29.269Z,44.15
2023-03-23T00:53:29.283Z,44.79
2023-03-23T00:54:29.290Z,44.15
2023-03-23T00:55:29.251Z,43.83
2023-03-23T00:56:29.265Z,43.99
2023-03-23T00:57:29.237Z,44.79
2023-03-23T00:58:29.283Z,43.83
2023-03-23T00:59:29.243Z,43.83
2023-03-23T01:00:29.261Z,44.63
2023-03-23T01:01:29.236Z,44.96
2023-03-23T01:02:29.220Z,45.60
2023-03-23T01:03:29.220Z,45.60
2023-03-23T01:04:29.207Z,43.67
2023-03-23T01:05:29.191Z,43.83
2023-03-23T01:06:29.187Z,44.96
2023-03-23T01:07:29.148Z,43.83
2023-03-23T01:08:29.177Z,43.99
2023-03-23T01:09:29.144Z,43.99
2023-03-23T01:10:29.220Z,43.67
2023-03-23T01:11:29.238Z,43.99
2023-03-23T01:12:29.154Z,44.47
2023-03-23T01:13:29.083Z,45.28
2023-03-23T01:14:29.097Z,43.99
2023-03-23T01:15:29.195Z,43.83
2023-03-23T01:16:29.107Z,43.99
2023-03-23T01:17:29.102Z,43.83
2023-03-23T01:18:33.916Z,43.99
2023-03-23T01:19:29.112Z,43.51
2023-03-23T01:20:29.038Z,43.99
2023-03-23T01:21:29.100Z,43.99
2023-03-23T01:22:29.029Z,43.51
2023-03-23T01:23:29.118Z,43.83
2023-03-23T01:24:29.134Z,43.83
2023-03-23T01:25:29.042Z,43.83
2023-03-23T01:26:29.132Z,44.15
2023-03-23T01:27:29.028Z,44.31
2023-03-23T01:28:28.990Z,44.15
2023-03-23T01:29:28.991Z,45.12
2023-03-23T01:30:29.018Z,45.76
2023-03-23T01:31:28.973Z,48.02
2023-03-23T01:32:28.932Z,44.15
2023-03-23T01:33:29.026Z,44.63
2023-03-23T01:34:28.949Z,46.25
2023-03-23T01:38:34.660Z,44.63
2023-03-23T01:39:26.645Z,45.28
2023-03-23T01:40:34.177Z,44.31
2023-03-23T01:41:26.605Z,44.47
2023-03-23T01:42:34.194Z,44.31
2023-03-23T01:43:34.296Z,44.31
2023-03-23T01:44:26.586Z,43.67
2023-03-23T01:45:26.587Z,43.99
2023-03-23T01:47:01.284Z,44.15
2023-03-23T01:47:27.736Z,43.99
2023-03-23T01:48:27.781Z,43.83
2023-03-23T01:49:27.678Z,43.99
2023-03-23T01:50:28.371Z,44.31
2023-03-23T01:51:36.676Z,44.96
2023-03-23T01:52:29.639Z,44.15
2023-03-23T01:53:27.675Z,43.83
2023-03-23T01:54:27.653Z,44.31
2023-03-23T01:55:27.634Z,44.15
2023-03-23T01:56:27.678Z,45.44
2023-03-23T01:57:27.610Z,44.63
2023-03-23T01:58:27.677Z,44.47
2023-03-23T01:59:27.602Z,44.47
2023-03-23T02:00:27.632Z,45.12
2023-03-23T02:01:27.603Z,45.12
2023-03-23T02:02:27.576Z,44.79
2023-03-23T02:03:27.591Z,44.63
2023-03-23T02:04:27.609Z,46.73
2023-03-23T02:05:27.597Z,48.66
2023-03-23T02:06:27.560Z,44.96
2023-03-23T02:07:27.565Z,45.44
2023-03-23T02:08:27.578Z,48.34
2023-03-23T02:09:27.529Z,49.31
2023-03-23T02:10:27.537Z,44.47
2023-03-23T02:11:27.503Z,43.67
2023-03-23T02:12:27.523Z,43.83
2023-03-23T02:13:27.503Z,43.34
2023-03-23T02:14:27.654Z,43.51
2023-03-23T02:15:27.459Z,43.34
2023-03-23T02:16:27.517Z,43.67
2023-03-23T02:17:27.482Z,43.83
2023-03-23T02:18:27.466Z,44.79
2023-03-23T02:19:27.437Z,44.63
2023-03-23T02:20:27.449Z,44.31
2023-03-23T02:21:27.428Z,43.67
2023-03-23T02:22:27.408Z,43.51
2023-03-23T02:23:27.474Z,43.51
2023-03-23T02:24:27.435Z,45.12
2023-03-23T02:25:27.447Z,43.51
2023-03-23T02:26:27.370Z,43.67
2023-03-23T02:27:27.364Z,43.67
2023-03-23T02:28:27.434Z,44.15
2023-03-23T02:29:27.352Z,43.34
2023-03-23T02:30:27.404Z,43.18
2023-03-23T02:31:27.354Z,43.18
2023-03-23T02:32:27.351Z,43.02
2023-03-23T02:33:27.362Z,43.67
2023-03-23T02:34:27.315Z,43.67
2023-03-23T02:35:27.338Z,43.02
2023-03-23T02:36:27.323Z,43.18
2023-03-23T02:37:27.303Z,44.63
2023-03-23T02:38:27.328Z,44.79
2023-03-23T02:39:27.278Z,49.15
2023-03-23T02:40:27.260Z,48.50
2023-03-23T02:41:27.261Z,49.95
2023-03-23T02:42:27.352Z,50.92
2023-03-23T02:43:27.294Z,45.60
2023-03-23T02:44:28.274Z,43.51
2023-03-23T02:45:27.244Z,43.18
2023-03-23T02:46:27.221Z,43.67
2023-03-23T02:47:27.224Z,43.67
2023-03-23T02:48:27.245Z,43.67
2023-03-23T02:49:27.274Z,44.79
2023-03-23T02:50:27.205Z,44.31
2023-03-23T02:51:27.195Z,43.83
2023-03-23T02:52:27.174Z,43.51
2023-03-23T02:53:27.178Z,43.34
2023-03-23T02:54:27.145Z,43.34
2023-03-23T02:55:28.161Z,43.02
2023-03-23T02:56:27.151Z,43.02
2023-03-23T02:57:40.254Z,43.18
2023-03-23T02:58:28.163Z,43.34
2023-03-23T02:59:27.139Z,43.51
2023-03-23T03:00:27.120Z,43.51
2023-03-23T03:01:27.116Z,43.51
2023-03-23T03:02:27.128Z,43.67
2023-03-23T03:03:27.101Z,43.99
2023-03-23T03:04:27.095Z,44.15
2023-03-23T03:05:27.110Z,43.67
2023-03-23T03:06:27.072Z,43.34
2023-03-23T03:07:27.064Z,43.34
2023-03-23T03:08:27.044Z,43.51
2023-03-23T03:09:27.081Z,43.67
2023-03-23T03:10:27.048Z,43.67
2023-03-23T03:11:27.033Z,44.15
2023-03-23T03:12:27.099Z,43.67
2023-03-23T03:13:29.272Z,43.67
2023-03-23T03:14:27.022Z,43.34
2023-03-23T03:15:27.003Z,43.18
2023-03-23T03:16:27.017Z,43.34
2023-03-23T03:17:27.045Z,44.47
2023-03-23T03:18:26.997Z,43.18
2023-03-23T03:19:26.988Z,43.34
2023-03-23T03:20:26.971Z,43.02
2023-03-23T03:21:26.943Z,43.83
2023-03-23T03:22:26.948Z,46.08
2023-03-23T03:23:26.942Z,44.15
2023-03-23T03:24:26.948Z,43.18
2023-03-23T03:25:26.940Z,43.18
2023-03-23T03:26:26.924Z,43.67
2023-03-23T03:27:26.911Z,43.18
2023-03-23T03:28:26.899Z,43.99
2023-03-23T03:29:26.915Z,43.02
2023-03-23T03:30:26.917Z,42.86
2023-03-23T03:31:26.898Z,43.02
2023-03-23T03:32:26.868Z,43.02
2023-03-23T03:33:26.929Z,43.02
2023-03-23T03:34:26.876Z,43.02
2023-03-23T03:35:26.844Z,43.99
2023-03-23T03:36:26.844Z,43.67
2023-03-23T03:37:26.917Z,42.86
2023-03-23T03:38:26.836Z,44.15
2023-03-23T03:39:26.808Z,44.63
2023-03-23T03:40:26.826Z,51.40
2023-03-23T03:41:26.816Z,50.92
2023-03-23T03:42:26.810Z,49.95
2023-03-23T03:43:26.802Z,45.76
2023-03-23T03:44:27.394Z,45.12
2023-03-23T03:45:26.821Z,45.28
2023-03-23T03:46:26.765Z,46.73
2023-03-23T04:03:53.772Z,54.46
2023-03-23T04:04:53.769Z,48.98
2023-03-23T04:05:58.502Z,49.95
2023-03-23T04:06:54.908Z,51.72
2023-03-23T04:07:54.851Z,53.01
2023-03-23T04:09:07.860Z,53.01
2023-03-23T04:09:55.859Z,56.72
2023-03-23T04:10:54.903Z,55.11
2023-03-23T04:11:55.470Z,51.72
2023-03-23T04:12:54.827Z,51.72
2023-03-23T04:13:54.831Z,49.63
2023-03-23T04:14:54.818Z,49.15
2023-03-23T04:16:07.117Z,48.50
2023-03-23T04:16:55.808Z,50.92
2023-03-23T04:17:54.830Z,49.95
2023-03-23T04:18:54.795Z,48.34
2023-03-23T04:19:54.796Z,49.95
2023-03-23T04:20:54.782Z,50.92
2023-03-23T04:21:55.787Z,49.47
2023-03-23T04:22:54.773Z,49.79
2023-03-23T04:23:54.729Z,52.69
2023-03-23T04:24:56.939Z,44.96
2023-03-23T04:25:54.751Z,47.21
2023-03-23T04:26:54.820Z,53.50
2023-03-23T04:27:57.305Z,55.27
2023-03-23T04:28:54.701Z,48.82
2023-03-23T04:29:54.699Z,46.57
2023-03-23T04:30:55.457Z,45.76
2023-03-23T04:31:54.685Z,48.50
2023-03-23T04:32:54.923Z,50.60
2023-03-23T04:33:58.705Z,48.82
2023-03-23T04:34:56.503Z,48.50
2023-03-23T04:35:55.659Z,50.76
2023-03-23T04:36:56.822Z,53.98
2023-03-23T04:37:54.667Z,54.79
2023-03-23T04:38:54.636Z,49.47
2023-03-23T04:39:54.613Z,52.53
2023-03-23T04:40:54.622Z,56.88
2023-03-23T04:41:54.636Z,53.01
2023-03-23T04:42:54.618Z,51.88
2023-03-23T04:43:54.612Z,49.63
2023-03-23T04:44:54.616Z,58.33
2023-03-23T04:45:54.567Z,57.36
2023-03-23T04:46:54.582Z,56.07
2023-03-23T04:47:54.581Z,52.69
2023-03-23T04:48:54.548Z,49.95
2023-03-23T04:49:54.526Z,58.49
2023-03-23T04:50:55.866Z,51.08
2023-03-23T04:51:55.539Z,54.14
2023-03-23T04:52:54.523Z,49.79
2023-03-23T04:53:54.523Z,58.01
2023-03-23T04:54:54.528Z,56.88
2023-03-23T04:55:54.491Z,50.76
2023-03-23T04:56:54.503Z,60.26
2023-03-23T04:57:54.487Z,51.72
2023-03-23T04:58:54.516Z,56.56
2023-03-23T04:59:54.460Z,52.05
2023-03-23T05:00:54.513Z,48.66
2023-03-23T05:01:54.483Z,49.95
2023-03-23T05:02:55.453Z,49.15
2023-03-23T05:03:55.029Z,48.34
2023-03-23T05:04:54.454Z,53.01
2023-03-23T05:05:54.409Z,48.98
2023-03-23T05:06:54.402Z,51.08
2023-03-23T05:07:58.345Z,50.60
2023-03-23T05:08:54.410Z,56.56
2023-03-23T05:09:54.405Z,51.24
2023-03-23T05:10:54.369Z,58.49
2023-03-23T05:11:54.366Z,58.49
2023-03-23T05:12:54.366Z,54.79
2023-03-23T05:13:54.360Z,51.56
2023-03-23T05:14:54.435Z,57.36
2023-03-23T05:15:54.384Z,51.08
2023-03-23T05:16:54.322Z,53.50
2023-03-23T05:17:54.360Z,54.46
2023-03-23T05:18:54.294Z,56.56
2023-03-23T05:19:54.341Z,50.76
2023-03-23T05:20:54.396Z,52.21
2023-03-23T05:21:54.290Z,56.40
2023-03-23T05:22:54.276Z,55.43
2023-03-23T05:23:54.283Z,56.24
2023-03-23T05:24:54.302Z,55.75
2023-03-23T05:25:54.275Z,49.31
2023-03-23T05:26:54.257Z,60.26
2023-03-23T05:27:54.254Z,50.60
2023-03-23T05:28:54.260Z,61.87
2023-03-23T05:29:54.812Z,61.39
2023-03-23T05:30:54.237Z,62.52
2023-03-23T05:31:54.225Z,58.65
2023-03-23T05:32:54.354Z,61.71
2023-03-23T05:33:54.196Z,60.26
2023-03-23T05:34:54.195Z,61.71
2023-03-23T05:35:54.237Z,50.92
2023-03-23T05:36:54.161Z,51.56
2023-03-23T05:37:54.212Z,53.98
2023-03-23T05:38:54.220Z,62.84
2023-03-23T05:39:54.178Z,56.24
2023-03-23T05:40:54.175Z,60.75
2023-03-23T05:41:54.146Z,58.65
2023-03-23T05:42:54.163Z,54.62
2023-03-23T05:43:54.161Z,62.04
2023-03-23T05:44:54.105Z,56.24
2023-03-23T05:45:54.110Z,53.66
2023-03-23T05:46:54.136Z,57.69
2023-03-23T05:47:55.099Z,49.79
2023-03-23T05:48:54.083Z,47.70
2023-03-23T05:49:54.063Z,52.05
2023-03-23T05:50:54.053Z,53.66
2023-03-23T05:51:54.047Z,57.69
2023-03-23T05:52:54.076Z,57.04
2023-03-23T05:53:54.059Z,62.68
2023-03-23T05:55:26.907Z,55.11
2023-03-23T05:55:54.027Z,54.14
2023-03-23T06:05:08.107Z,57.69
2023-03-23T06:06:08.093Z,63.33
2023-03-23T06:07:08.087Z,57.69
2023-03-23T06:08:08.077Z,60.42
2023-03-23T06:09:09.284Z,58.81
2023-03-23T06:10:09.246Z,57.69
2023-03-23T06:11:09.243Z,57.20
2023-03-23T06:12:09.815Z,48.34
2023-03-23T06:13:09.275Z,61.55
2023-03-23T06:14:09.462Z,62.68
2023-03-23T06:15:09.183Z,61.55
2023-03-23T06:16:09.188Z,57.36
2023-03-23T06:17:09.177Z,65.42
2023-03-23T06:18:09.155Z,51.08
2023-03-23T06:19:09.163Z,62.36
2023-03-23T06:20:09.154Z,58.01
2023-03-23T06:21:09.171Z,63.16
2023-03-23T06:22:10.121Z,65.74
2023-03-23T06:23:09.131Z,56.07
2023-03-23T06:24:09.141Z,61.55
2023-03-23T06:25:09.252Z,67.35
2023-03-23T06:26:09.158Z,65.90
2023-03-23T06:27:09.089Z,68.00
2023-03-23T06:28:09.074Z,63.00
2023-03-23T06:29:09.113Z,62.52
2023-03-23T06:30:09.140Z,62.52
2023-03-23T06:31:09.069Z,65.58
2023-03-23T06:32:09.062Z,66.87
2023-03-23T06:33:09.091Z,65.58
2023-03-23T06:34:09.093Z,62.68
2023-03-23T06:35:09.055Z,68.48
2023-03-23T06:36:09.159Z,61.87
2023-03-23T06:37:09.021Z,64.45
2023-03-23T06:38:09.115Z,61.71
2023-03-23T06:39:09.063Z,62.04
2023-03-23T06:40:09.017Z,66.87
2023-03-23T06:41:09.023Z,61.55
2023-03-23T06:42:08.980Z,60.59
2023-03-23T06:43:09.961Z,56.40
2023-03-23T06:44:08.975Z,62.84
2023-03-23T06:45:08.976Z,60.10
2023-03-23T06:46:08.995Z,65.26
2023-03-23T06:47:08.962Z,62.20
2023-03-23T06:48:08.940Z,53.50
2023-03-23T06:49:08.926Z,61.23
2023-03-23T06:50:08.992Z,62.68
2023-03-23T06:51:08.963Z,67.19
2023-03-23T06:52:08.949Z,62.84
2023-03-23T06:53:08.917Z,54.14
2023-03-23T06:54:08.900Z,57.04
2023-03-23T06:55:08.888Z,56.88
2023-03-23T06:56:08.898Z,51.56
2023-03-23T06:57:08.954Z,60.59
2023-03-23T06:58:08.874Z,60.91
2023-03-23T06:59:08.875Z,53.50
2023-03-23T07:00:09.513Z,63.49
2023-03-23T07:01:09.838Z,59.78
2023-03-23T07:02:08.849Z,50.92
2023-03-23T07:03:08.821Z,58.01
2023-03-23T07:04:08.819Z,48.34
2023-03-23T07:05:08.815Z,53.01
2023-03-23T07:06:08.806Z,67.03
2023-03-23T07:07:40.779Z,51.72
2023-03-23T07:08:09.568Z,61.55
2023-03-23T07:09:08.810Z,57.36
2023-03-23T07:10:08.883Z,48.66
2023-03-23T07:11:08.759Z,55.11
2023-03-23T07:12:08.772Z,63.33
2023-03-23T07:13:08.793Z,58.81
2023-03-23T07:14:08.751Z,64.29
2023-03-23T07:15:08.717Z,59.62
2023-03-23T07:16:09.720Z,57.36
2023-03-23T07:17:08.708Z,55.59
2023-03-23T07:18:08.746Z,62.36
2023-03-23T07:19:08.791Z,54.62
2023-03-23T07:20:08.698Z,55.27
2023-03-23T07:21:08.699Z,61.39
2023-03-23T07:22:08.676Z,48.82
2023-03-23T07:23:08.686Z,48.66
2023-03-23T07:24:08.743Z,50.27
2023-03-23T07:25:08.651Z,59.14
2023-03-23T07:26:08.656Z,50.27
2023-03-23T07:27:08.710Z,61.71
2023-03-23T07:28:08.619Z,58.33
2023-03-23T07:29:08.652Z,52.37
2023-03-23T07:30:08.644Z,52.37
2023-03-23T07:31:08.632Z,59.46
2023-03-23T07:32:08.672Z,61.23
2023-03-23T07:33:08.599Z,57.20
2023-03-23T07:34:08.599Z,51.08
2023-03-23T07:35:09.797Z,55.27
2023-03-23T07:36:08.617Z,56.56
2023-03-23T07:37:08.570Z,51.56
2023-03-23T07:38:08.551Z,53.98
2023-03-23T07:39:09.276Z,54.46
2023-03-23T07:40:08.557Z,61.87
2023-03-23T07:41:08.552Z,56.56
2023-03-23T07:42:08.531Z,64.78
2023-03-23T07:43:08.542Z,50.27
2023-03-23T07:44:08.514Z,51.72
2023-03-23T07:45:08.519Z,52.37
2023-03-23T07:46:08.473Z,63.00
2023-03-23T07:47:08.474Z,60.91
2023-03-23T07:48:15.903Z,47.37
2023-03-23T07:49:36.339Z,50.27
2023-03-23T07:50:08.446Z,52.85
2023-03-23T07:51:41.325Z,47.21
2023-03-23T07:52:09.328Z,57.20
2023-03-23T07:53:08.439Z,49.79
2023-03-23T07:54:09.453Z,56.56
2023-03-23T07:55:08.459Z,51.72
2023-03-23T07:56:08.413Z,55.27
2023-03-23T07:57:08.426Z,57.04
2023-03-23T07:58:08.370Z,53.82
2023-03-23T07:59:08.378Z,49.31
2023-03-23T08:00:08.382Z,50.60
2023-03-23T08:01:08.347Z,60.91
2023-03-23T08:02:08.730Z,51.56
2023-03-23T08:03:08.385Z,52.37
2023-03-23T08:04:08.335Z,47.86
2023-03-23T08:05:41.044Z,50.11
2023-03-23T08:06:08.313Z,61.23
2023-03-23T08:07:08.358Z,54.14
2023-03-23T08:08:08.371Z,50.60
2023-03-23T08:09:08.317Z,51.08
2023-03-23T08:10:08.359Z,55.27
2023-03-23T08:11:08.291Z,54.14
2023-03-23T08:12:08.279Z,51.24
2023-03-23T08:13:08.246Z,57.04
2023-03-23T08:14:08.264Z,50.27
2023-03-23T08:15:08.276Z,50.76
2023-03-23T08:16:08.282Z,48.02
2023-03-23T08:17:08.223Z,52.53
2023-03-23T08:18:08.315Z,57.69
2023-03-23T08:19:08.728Z,50.76
2023-03-23T08:20:08.307Z,57.20
2023-03-23T08:21:08.208Z,53.01
2023-03-23T08:22:08.198Z,53.01
2023-03-23T08:23:08.201Z,56.07
2023-03-23T08:24:08.218Z,55.27
2023-03-23T08:25:08.163Z,56.72
2023-03-23T08:26:08.175Z,57.20
2023-03-23T08:27:08.184Z,49.31
2023-03-23T08:28:08.139Z,56.07
2023-03-23T08:29:08.149Z,54.30
2023-03-23T08:30:08.173Z,57.04
2023-03-23T08:31:08.114Z,64.61
2023-03-23T08:32:08.101Z,53.01
2023-03-23T08:33:40.874Z,55.11
2023-03-23T08:34:08.138Z,55.59
2023-03-23T08:35:08.099Z,51.88
2023-03-23T08:36:08.148Z,51.08
2023-03-23T08:37:08.080Z,51.24
2023-03-23T08:38:08.079Z,57.20
2023-03-23T08:39:08.046Z,51.72
2023-03-23T08:40:08.178Z,53.98
2023-03-23T08:41:08.061Z,49.31
2023-03-23T08:42:08.088Z,52.05
2023-03-23T08:43:08.037Z,48.34
2023-03-23T08:44:08.904Z,58.17
2023-03-23T08:45:08.011Z,53.82
2023-03-23T08:46:08.053Z,63.16
2023-03-23T08:47:08.108Z,54.46
2023-03-23T08:48:07.986Z,48.50
2023-03-23T08:49:07.968Z,60.91
2023-03-23T08:50:08.088Z,49.47
2023-03-23T08:51:07.987Z,60.26
2023-03-23T08:52:07.953Z,51.40
2023-03-23T08:53:07.941Z,52.05
2023-03-23T08:54:07.958Z,54.62
2023-03-23T08:55:07.956Z,57.69
2023-03-23T08:56:07.963Z,49.31
2023-03-23T08:57:07.953Z,49.47
2023-03-23T08:58:07.914Z,51.40
2023-03-23T08:59:07.909Z,47.53
2023-03-23T09:00:07.923Z,61.23
2023-03-23T09:01:07.899Z,55.43
2023-03-23T09:02:08.002Z,50.60
2023-03-23T09:03:07.937Z,51.88
2023-03-23T09:04:07.877Z,52.05
2023-03-23T09:05:07.876Z,56.07
2023-03-23T09:06:07.848Z,56.88
2023-03-23T09:07:07.834Z,49.15
2023-03-23T09:08:07.862Z,53.33
2023-03-23T09:09:07.870Z,55.43
2023-03-23T09:10:07.918Z,54.79
2023-03-23T09:11:07.804Z,54.62
2023-03-23T09:12:07.835Z,53.01
2023-03-23T09:13:07.842Z,51.24
2023-03-23T09:14:07.808Z,54.46
2023-03-23T09:15:07.807Z,55.27
2023-03-23T09:16:07.793Z,51.56
2023-03-23T09:17:07.765Z,56.40
2023-03-23T09:18:07.762Z,51.08
2023-03-23T09:19:07.781Z,59.46
2023-03-23T09:20:07.750Z,48.18
2023-03-23T09:21:07.767Z,55.59
2023-03-23T09:22:08.735Z,55.43
2023-03-23T09:23:07.736Z,61.71
2023-03-23T09:24:07.783Z,62.52
2023-03-23T09:25:09.156Z,56.88
2023-03-23T09:26:07.740Z,56.88
2023-03-23T09:27:07.699Z,52.21
2023-03-23T09:28:07.830Z,51.24
2023-03-23T09:29:07.669Z,53.82
2023-03-23T09:30:08.513Z,51.40
2023-03-23T09:31:07.680Z,49.15
2023-03-23T09:32:07.645Z,54.30
2023-03-23T09:33:07.647Z,55.75
2023-03-23T09:34:07.645Z,57.69
2023-03-23T09:35:07.618Z,53.66
2023-03-23T09:36:07.626Z,56.07
2023-03-23T09:37:07.610Z,57.69
2023-03-23T09:38:07.619Z,51.40
2023-03-23T09:39:07.632Z,49.79
2023-03-23T09:40:07.726Z,60.10
2023-03-23T09:41:07.607Z,62.36
2023-03-23T09:42:07.550Z,57.04
2023-03-23T09:43:07.593Z,56.40
2023-03-23T09:44:07.606Z,55.11
2023-03-23T09:45:07.560Z,58.17
2023-03-23T09:46:07.561Z,60.75
2023-03-23T09:47:07.584Z,51.24
2023-03-23T09:48:08.395Z,57.04
2023-03-23T09:49:07.550Z,52.05
2023-03-23T09:50:07.565Z,55.75
2023-03-23T09:51:07.520Z,53.50
2023-03-23T09:52:07.518Z,55.59
2023-03-23T09:53:07.607Z,49.63
2023-03-23T09:54:07.524Z,49.15
2023-03-23T09:55:07.479Z,54.95
2023-03-23T09:56:07.484Z,53.17
2023-03-23T09:57:07.498Z,48.82
2023-03-23T09:58:07.445Z,58.81
2023-03-23T09:59:07.460Z,60.75
2023-03-23T10:00:07.517Z,59.14
2023-03-23T10:01:07.485Z,55.27
2023-03-23T10:02:07.488Z,63.16
2023-03-23T10:03:07.429Z,49.95
2023-03-23T10:04:07.405Z,60.10
2023-03-23T10:05:07.385Z,51.88
2023-03-23T10:06:07.393Z,53.17
2023-03-23T10:07:07.413Z,56.07
2023-03-23T10:08:07.434Z,62.68
2023-03-23T10:09:07.371Z,56.88
2023-03-23T10:10:07.389Z,49.63
2023-03-23T10:11:07.478Z,54.14
2023-03-23T10:12:07.341Z,58.81
2023-03-23T10:13:07.357Z,59.14
2023-03-23T10:14:07.396Z,51.56
2023-03-23T10:15:07.320Z,60.59
2023-03-23T10:16:07.337Z,60.26
2023-03-23T10:17:07.529Z,48.82
2023-03-23T10:18:07.400Z,56.72
2023-03-23T10:19:07.311Z,58.81
2023-03-23T10:20:07.297Z,50.11
2023-03-23T10:21:07.332Z,49.15
2023-03-23T10:22:07.300Z,52.85
2023-03-23T10:23:07.291Z,49.15
2023-03-23T10:24:07.274Z,56.07
2023-03-23T10:25:07.244Z,62.52
2023-03-23T10:26:07.263Z,55.59
2023-03-23T10:27:07.260Z,58.17
2023-03-23T10:28:07.223Z,56.72
2023-03-23T10:29:07.264Z,62.04
2023-03-23T10:30:07.252Z,56.07
2023-03-23T10:31:07.308Z,52.85
2023-03-23T10:32:07.206Z,59.30
2023-03-23T10:33:07.241Z,53.98
2023-03-23T10:34:07.249Z,55.59
2023-03-23T10:35:07.183Z,53.82
2023-03-23T10:36:07.174Z,61.39
2023-03-23T10:37:07.184Z,54.14
2023-03-23T10:38:07.278Z,50.60
2023-03-23T10:39:07.215Z,52.21
2023-03-23T10:40:07.192Z,55.43
2023-03-23T10:41:07.121Z,56.07
2023-03-23T10:42:07.133Z,52.21
2023-03-23T10:43:07.102Z,62.68
2023-03-23T10:44:07.113Z,56.07
2023-03-23T10:45:07.115Z,59.94
2023-03-23T10:46:07.163Z,55.75
2023-03-23T10:47:07.085Z,59.14
2023-03-23T10:48:07.084Z,59.78
2023-03-23T10:49:07.118Z,50.60
2023-03-23T10:50:07.054Z,52.85
2023-03-23T10:51:07.099Z,55.27
2023-03-23T10:52:07.045Z,55.59
2023-03-23T10:53:07.030Z,58.17
2023-03-23T10:54:07.053Z,56.72
2023-03-23T10:55:07.029Z,48.34
2023-03-23T10:56:07.044Z,53.33
2023-03-23T10:57:07.032Z,61.87
2023-03-23T10:58:07.081Z,52.53
2023-03-23T10:59:07.006Z,57.52
2023-03-23T11:00:06.996Z,60.59
2023-03-23T11:01:06.979Z,50.11
2023-03-23T11:02:07.004Z,59.94
2023-03-23T11:03:07.011Z,60.26
2023-03-23T11:04:07.968Z,59.62
2023-03-23T11:05:09.612Z,67.03
2023-03-23T11:06:08.018Z,53.50
2023-03-23T11:07:06.981Z,57.04
2023-03-23T11:08:06.942Z,51.56
2023-03-23T11:09:06.926Z,61.55
2023-03-23T11:10:06.933Z,58.49
2023-03-23T11:11:06.924Z,54.62
2023-03-23T11:12:06.913Z,52.21
2023-03-23T11:13:06.899Z,50.60
2023-03-23T11:14:06.907Z,51.08
2023-03-23T11:15:06.918Z,59.78
2023-03-23T11:16:06.917Z,62.84
2023-03-23T11:17:15.547Z,60.59
2023-03-23T11:18:08.842Z,47.70
2023-03-23T11:19:07.556Z,55.75
2023-03-23T11:20:06.836Z,56.88
2023-03-23T11:21:07.518Z,57.69
2023-03-23T11:22:06.902Z,52.69
2023-03-23T11:23:06.901Z,52.05
2023-03-23T11:24:09.927Z,63.49
2023-03-23T11:25:07.850Z,48.98
2023-03-23T11:26:06.792Z,61.39
2023-03-23T11:27:06.795Z,50.76
2023-03-23T11:28:06.782Z,54.79
2023-03-23T11:29:06.868Z,56.56
2023-03-23T11:30:06.769Z,46.41
2023-03-23T11:31:06.767Z,49.15
2023-03-23T11:32:06.807Z,55.11
2023-03-23T11:33:06.803Z,58.81
2023-03-23T11:34:06.860Z,48.18
2023-03-23T11:35:16.000Z,46.73
2023-03-23T11:36:08.841Z,50.76
2023-03-23T11:37:06.727Z,57.69
2023-03-23T11:38:06.780Z,54.46
2023-03-23T11:39:06.716Z,54.62
2023-03-23T11:40:06.689Z,59.78
2023-03-23T11:41:06.694Z,49.79
2023-03-23T11:42:09.719Z,62.68
2023-03-23T11:43:07.678Z,57.52
2023-03-23T11:44:06.683Z,47.05
2023-03-23T11:45:06.684Z,55.59
2023-03-23T11:46:06.774Z,50.27
2023-03-23T11:47:06.625Z,54.14
2023-03-23T11:48:06.661Z,57.52
2023-03-23T11:49:15.603Z,60.75
2023-03-23T11:50:08.616Z,53.17
2023-03-23T11:51:07.685Z,59.46
2023-03-23T11:52:06.627Z,53.01
2023-03-23T11:53:06.675Z,60.59
2023-03-23T11:54:06.604Z,59.78
2023-03-23T11:55:06.550Z,57.20
2023-03-23T11:56:06.589Z,56.07
2023-03-23T11:57:06.603Z,51.40
2023-03-23T11:58:06.578Z,51.24
2023-03-23T11:59:06.560Z,56.24
2023-03-23T12:00:06.618Z,59.62
2023-03-23T12:01:06.563Z,61.39
2023-03-23T12:02:16.889Z,54.14
2023-03-23T12:03:08.534Z,56.40
2023-03-23T12:04:06.501Z,60.75
2023-03-23T12:05:06.530Z,57.04
2023-03-23T12:06:06.498Z,54.14
2023-03-23T12:07:06.468Z,61.55
2023-03-23T12:08:06.469Z,63.00
2023-03-23T12:09:06.491Z,52.05
2023-03-23T12:10:06.461Z,59.30
2023-03-23T12:11:38.867Z,58.97
2023-03-23T12:12:06.426Z,47.70
2023-03-23T12:13:06.439Z,64.13
2023-03-23T12:14:06.419Z,54.46
2023-03-23T12:15:07.066Z,47.37
2023-03-23T12:16:06.399Z,66.55
2023-03-23T12:17:06.425Z,59.30
2023-03-23T12:18:06.413Z,61.71
2023-03-23T12:19:06.405Z,48.02
2023-03-23T12:20:06.387Z,55.59
2023-03-23T12:21:06.383Z,53.01
2023-03-23T12:22:06.391Z,53.82
2023-03-23T12:23:06.335Z,53.66
2023-03-23T12:24:06.479Z,51.88
2023-03-23T12:25:06.347Z,52.69
2023-03-23T12:26:06.351Z,56.07
2023-03-23T12:27:06.323Z,53.50
2023-03-23T12:28:06.328Z,52.53
2023-03-23T12:29:06.332Z,59.30
2023-03-23T12:30:06.303Z,56.72
2023-03-23T12:31:06.392Z,57.20
2023-03-23T12:32:06.290Z,51.08
2023-03-23T12:33:06.344Z,52.37
2023-03-23T12:34:06.336Z,56.07
2023-03-23T12:35:06.285Z,59.14
2023-03-23T12:36:06.325Z,53.01
2023-03-23T12:37:06.260Z,63.97
2023-03-23T12:38:06.260Z,56.40
2023-03-23T12:39:06.314Z,47.53
2023-03-23T12:40:06.234Z,60.26
2023-03-23T12:41:06.236Z,50.43
2023-03-23T12:42:07.414Z,60.91
2023-03-23T12:43:06.208Z,56.72
2023-03-23T12:44:06.185Z,62.84
2023-03-23T12:45:06.213Z,60.26
2023-03-23T12:46:06.186Z,51.40
2023-03-23T12:47:06.272Z,54.62
2023-03-23T12:48:06.171Z,51.72
2023-03-23T12:49:06.171Z,57.20
2023-03-23T12:50:06.139Z,54.95
2023-03-23T12:51:06.132Z,58.49
2023-03-23T12:52:06.114Z,53.82
2023-03-23T12:53:06.133Z,57.69
2023-03-23T12:54:06.181Z,60.10
2023-03-23T12:55:06.153Z,53.17
2023-03-23T12:56:06.111Z,56.88
2023-03-23T12:57:06.130Z,52.37
2023-03-23T12:58:06.190Z,51.40
2023-03-23T12:59:06.120Z,54.62
2023-03-23T13:00:06.121Z,61.87
2023-03-23T13:01:06.086Z,59.30
2023-03-23T13:02:06.090Z,49.47
2023-03-23T13:03:06.076Z,52.53
2023-03-23T13:04:06.046Z,60.59
2023-03-23T13:05:06.161Z,56.56
2023-03-23T13:06:06.042Z,52.05
2023-03-23T13:07:06.072Z,51.56
2023-03-23T13:08:06.011Z,55.27
2023-03-23T13:09:06.019Z,60.26
2023-03-23T13:10:06.267Z,48.82
2023-03-23T13:11:06.016Z,54.46
2023-03-23T13:12:07.015Z,51.56
2023-03-23T13:13:05.978Z,52.05
2023-03-23T13:14:05.968Z,56.88
2023-03-23T13:15:05.952Z,48.50
2023-03-23T13:16:05.942Z,49.63
2023-03-23T13:17:06.007Z,62.84
2023-03-23T13:18:05.946Z,56.07
2023-03-23T13:19:05.937Z,64.94